Rui Cunha

Chief Scout - Arouca
3 Dec 2028
Sunday
Process

Personality

Adaptability (1) Ambition (12) Controversy (17) Loyalty (14) Pressure (17) Professionalism (9) Sportsmanship (14) Temperament (16)

Profile

Coaching Style Democratic
License National B
Determination 10
Man Management 9
Motivating 4
Discipline 6
Job Satisfaction
100%
Fatigue
0%
Role Chief Scout
Wage 42.0K p/w
Contract 14.03.2029

Performance

Behaviour Good
Training Effectiveness
49%
Player Development
30%
Injury Prevention
25%
Tactical Implementation
50%

Recent Events

Attended a recruitment meeting now
Attended a recruitment meeting now
Recommended a transfer target now
Recommended a transfer target now
Recommended a transfer target now
Attended a recruitment meeting now
Recommended a transfer target now
Recommended a transfer target 7d ago

Currently Monitoring

92
Player Club Status Ability Confidence Watched Last Observed Latest Vote
Duarte Cunha Porto Lost 109 / 124 69% 1 21.08.2028 -
Nito Pacos de Ferreira Lost 89 / 91 69% 1 31.07.2028 -
Kiko Pereira Chaves Active 103 / 110 69% 1 10.07.2028 Approve
João Silva Oliveirense Active 99 / 106 65% 1 02.06.2028 Approve
Mao Hosoya Santos Active 134 / 135 67% 1 01.01.2028 Approve
Kwadwo Baah Watford Active 121 / 126 40% 3 27.05.2027 -
Sorriso Famalicao Active 133 / 131 40% 4 26.05.2027 -
Othmane Maamma Watford Active 129 / 135 40% 1 26.05.2027 -
Alfie Doughty Millwall Active 133 / 124 40% 1 22.05.2027 -
Joseph Hungbo Wigan Athletic Active 107 / 100 40% 1 22.05.2027 -
Giorgi Chakvetadze Watford Active 131 / 120 40% 1 21.05.2027 -
Tahith Chong Sheffield United Active 121 / 115 40% 1 21.05.2027 -
Tyrese Campbell Sheffield United Active 119 / 121 40% 2 20.05.2027 -
Milan van Ewijk Coventry City Active 132 / 126 40% 4 19.05.2027 -
Martín Tejón Maritimo Active 125 / 111 40% 2 18.05.2027 -
Bongani Zungu Ajax Cape Town Active 112 / 127 40% 5 14.05.2027 -
Tony Springett Cheltenham Town Active 111 / 101 40% 1 12.05.2027 -
Jackson Muleka Konyaspor Active 122 / 124 40% 1 12.05.2027 -
Amine Adli Bournemouth Active 142 / 140 40% 1 09.05.2027 -
Daniel Kyerewaa Reading Active 111 / 111 40% 2 07.05.2027 -
Lorougnon Gohi Académico de Viseu Active 115 / 117 40% 1 07.05.2027 Needs More Info
Jack Rudoni Coventry City Active 131 / 136 40% 3 05.05.2027 -
Ricard Sánchez Estoril Praia Active 120 / 126 40% 2 01.05.2027 -
Derensili Sanches Fernandes Huddersfield Town Active 134 / 125 40% 1 01.05.2027 -
Olívio Tomé Benfica Active 106 / 110 40% 2 28.04.2027 -
Bobby Clark Derby County Active 132 / 117 40% 1 28.04.2027 -
Sonny Carey Charlton Athletic Active 118 / 128 40% 1 27.04.2027 -
Joe Gelhardt Hull City Active 131 / 136 40% 3 26.04.2027 -
Juan Bezerra Zamalek Active 118 / 119 40% 3 26.04.2027 -
Andre Brooks Sheffield United Active 134 / 138 40% 3 23.04.2027 -
Tomáš Rigo Stoke City Active 124 / 133 40% 1 22.04.2027 -
Sam Greenwood Bristol City Active 126 / 114 40% 2 20.04.2027 -
Max Bird Birmingham Active 129 / 128 40% 1 20.04.2027 -
Max Johnston Derby County Active 136 / 123 40% 1 18.04.2027 -
Mohamed-Ali Cho Hull City Active 136 / 142 40% 2 17.04.2027 -
Yanis Begraoui Estoril Praia Active 129 / 136 40% 1 16.04.2027 -
Jason Knight Bristol City Active 123 / 120 40% 1 10.04.2027 -
Harry Clarke Preston Active 123 / 129 40% 1 07.04.2027 -
Santi García Gil Vicente Active 144 / 138 40% 1 06.04.2027 -
Vinícius Lopes Santa Clara Active 115 / 120 40% 3 04.04.2027 -
Dennis Cirkin Queens Park Rangers Active 130 / 120 40% 2 01.04.2027 -
Simo Maritimo Active 123 / 115 40% 1 30.03.2027 -
Rodrigo Ramos Feirense Active 124 / 109 40% 1 30.03.2027 -
Gustavo Silva Vitoria Guimaraes Active 128 / 124 40% 6 27.03.2027 -
Finn Azaz Southampton Active 130 / 118 40% 3 26.03.2027 -
Welington Southampton Active 125 / 132 40% 1 22.03.2027 -
Manu Pozo Torreense Active 120 / 111 40% 3 18.03.2027 -
Malik Sellouki Rio Ave Active 101 / 117 40% 1 17.03.2027 -
Savinho Tottenham Active 153 / 166 40% 3 14.03.2027 -
Ole Pohlmann Rio Ave Active 133 / 114 40% 1 13.03.2027 -
Ronaldo Maarman University of Pretoria Active 103 / 93 40% 1 08.03.2027 -
Cian Ashford Cardiff City Active 119 / 115 40% 1 07.03.2027 -
Toby Collyer West Bromwich Albion Active 130 / 122 40% 2 04.02.2027 -
Habib Diarra Sunderland Active 139 / 147 40% 2 03.02.2027 -
Lukáš Červ Viktoria Plzen Active 119 / 134 40% 1 01.02.2027 -
Jack Currie Oxford United Active 123 / 125 40% 1 05.01.2027 -
Luke McNally Bristol City Active 136 / 124 40% 1 05.01.2027 -
Sampson Dweh Mallorca Active 133 / 134 66% 1 01.01.2027 Approve
Jefry Zapata Aldosivi Active 118 / 118 66% 1 01.01.2027 Approve
Julian Herrera Cortulua Active 119 / 119 66% 1 01.01.2027 Approve
Marley Aké Zulte Waregem Active 107 / 106 40% 1 30.12.2026 -
Sylvester Jasper Standard Liege Active 120 / 112 40% 1 27.12.2026 -
Paulo Victor Queretaro Active 105 / 113 40% 1 26.12.2026 -
Bradley Zwane SuperSport United Active 122 / 114 40% 2 24.12.2026 -
Reda Khadra Qarabag Active 135 / 126 40% 3 23.12.2026 -
Emi Rodriguez Leon Active 118 / 115 40% 3 20.12.2026 -
Soma Anzai FC Tokyo Active 110 / 115 40% 1 06.12.2026 -
Pedro Vite Pumas UNAM Active 125 / 110 40% 2 02.12.2026 -
Telmo Arcanjo Vitoria Guimaraes Active 127 / 118 40% 1 29.11.2026 -
Alex Luna Instituto Active 130 / 136 40% 3 28.11.2026 -
Fiete Arp OB Active 113 / 112 40% 1 26.11.2026 -
William Gomes Porto Active 134 / 136 40% 1 20.11.2026 -
Bosun Lawal Stoke City Active 129 / 124 40% 1 20.11.2026 -
Tristan Degreef Anderlecht Active 130 / 123 40% 1 18.11.2026 -
Kevin Fulham Active 145 / 143 40% 1 15.11.2026 -
Santiago Montiel Independiente Active 137 / 136 40% 1 15.11.2026 -
Roberto Fernández Braga Active 135 / 137 40% 3 13.11.2026 Monitor
Jens Petter Hauge Bodo/Glimt Active 142 / 133 40% 2 13.11.2026 -
Tyrhys Dolan Espanyol Active 128 / 146 40% 1 12.11.2026 -
Marcelo Allende Mamelodi Sundowns Active 118 / 134 40% 2 11.11.2026 -
Ramiro Ruiz Rodríguez Atlético Tucumán Active 136 / 135 40% 1 25.10.2026 -
Santiago Rodríguez Columbus Crew Active 131 / 122 40% 1 20.10.2026 -
Marcus Edwards Burnley Active 134 / 142 40% 1 19.10.2026 -
Eddie Nketiah Crystal Palace Active 150 / 146 40% 1 18.10.2026 -
André Wolverhampton Active 137 / 152 40% 1 15.10.2026 -
Jadon Sancho Manchester United Active 151 / 157 40% 1 15.10.2026 -
Kristoffer Lund Birmingham Active 121 / 123 40% 1 14.10.2026 -
Jannenson Sarmiento Junior Active 109 / 114 40% 1 11.10.2026 -
Jesús Garza Tigres Active 113 / 110 40% 1 10.10.2026 -
Ignacio Perruzzi San Lorenzo Active 100 / 140 40% 1 25.08.2026 -
Andrey Estupiñán Millonarios Active 124 / 121 40% 1 18.08.2026 -
Wessam Abou Ali Columbus Crew Active 145 / 124 40% 1 03.08.2026 -